sensor_id;sensor_type;location;lat;lon;timestamp;P1;durP1;ratioP1;P2;durP2;ratioP2
8592;SDS011;4334;49.982;8.398;2023-10-13T00:01:20;13.37;;;6.63;;
8592;SDS011;4334;49.982;8.398;2023-10-13T00:03:47;10.23;;;5.83;;
8592;SDS011;4334;49.982;8.398;2023-10-13T00:06:14;11.67;;;5.87;;
8592;SDS011;4334;49.982;8.398;2023-10-13T00:08:41;10.80;;;6.80;;
8592;SDS011;4334;49.982;8.398;2023-10-13T00:11:11;11.77;;;5.83;;
8592;SDS011;4334;49.982;8.398;2023-10-13T00:13:40;9.13;;;5.00;;
8592;SDS011;4334;49.982;8.398;2023-10-13T00:16:08;7.80;;;5.93;;
8592;SDS011;4334;49.982;8.398;2023-10-13T00:18:42;16.17;;;5.13;;
8592;SDS011;4334;49.982;8.398;2023-10-13T00:21:09;10.57;;;4.70;;
8592;SDS011;4334;49.982;8.398;2023-10-13T00:23:41;11.77;;;6.07;;
8592;SDS011;4334;49.982;8.398;2023-10-13T00:26:17;21.03;;;5.30;;
8592;SDS011;4334;49.982;8.398;2023-10-13T00:28:50;10.40;;;5.60;;
8592;SDS011;4334;49.982;8.398;2023-10-13T00:31:24;10.37;;;5.50;;
8592;SDS011;4334;49.982;8.398;2023-10-13T00:33:57;12.23;;;6.07;;
8592;SDS011;4334;49.982;8.398;2023-10-13T00:36:28;13.63;;;5.83;;
8592;SDS011;4334;49.982;8.398;2023-10-13T00:38:57;16.50;;;6.23;;
8592;SDS011;4334;49.982;8.398;2023-10-13T00:41:24;8.77;;;5.43;;
8592;SDS011;4334;49.982;8.398;2023-10-13T00:44:11;11.67;;;5.53;;
8592;SDS011;4334;49.982;8.398;2023-10-13T00:46:41;10.30;;;5.43;;
8592;SDS011;4334;49.982;8.398;2023-10-13T00:49:10;9.57;;;5.73;;
8592;SDS011;4334;49.982;8.398;2023-10-13T00:51:40;9.47;;;6.10;;
8592;SDS011;4334;49.982;8.398;2023-10-13T00:54:12;8.23;;;5.30;;
8592;SDS011;4334;49.982;8.398;2023-10-13T00:56:38;11.47;;;5.70;;
8592;SDS011;4334;49.982;8.398;2023-10-13T00:59:14;10.90;;;5.70;;
8592;SDS011;4334;49.982;8.398;2023-10-13T01:01:41;10.83;;;5.90;;
8592;SDS011;4334;49.982;8.398;2023-10-13T01:04:09;8.27;;;5.00;;
8592;SDS011;4334;49.982;8.398;2023-10-13T01:06:37;12.67;;;6.13;;
8592;SDS011;4334;49.982;8.398;2023-10-13T01:09:05;9.83;;;5.53;;
8592;SDS011;4334;49.982;8.398;2023-10-13T01:11:42;11.73;;;6.00;;
8592;SDS011;4334;49.982;8.398;2023-10-13T01:14:11;9.57;;;5.63;;
8592;SDS011;4334;49.982;8.398;2023-10-13T01:16:41;9.13;;;5.70;;
8592;SDS011;4334;49.982;8.398;2023-10-13T01:19:09;9.63;;;5.93;;
8592;SDS011;4334;49.982;8.398;2023-10-13T01:21:37;10.27;;;5.93;;
8592;SDS011;4334;49.982;8.398;2023-10-13T01:24:07;11.17;;;6.03;;
8592;SDS011;4334;49.982;8.398;2023-10-13T01:26:35;16.67;;;6.83;;
8592;SDS011;4334;49.982;8.398;2023-10-13T01:29:05;14.23;;;6.20;;
8592;SDS011;4334;49.982;8.398;2023-10-13T01:31:39;14.30;;;6.87;;
8592;SDS011;4334;49.982;8.398;2023-10-13T01:34:12;12.13;;;6.00;;
8592;SDS011;4334;49.982;8.398;2023-10-13T01:36:38;15.07;;;6.97;;
8592;SDS011;4334;49.982;8.398;2023-10-13T01:39:08;8.13;;;5.23;;
8592;SDS011;4334;49.982;8.398;2023-10-13T01:41:36;9.27;;;6.03;;
8592;SDS011;4334;49.982;8.398;2023-10-13T01:44:04;11.60;;;6.07;;
8592;SDS011;4334;49.982;8.398;2023-10-13T01:46:30;12.00;;;6.20;;
8592;SDS011;4334;49.982;8.398;2023-10-13T01:49:02;13.00;;;5.77;;
8592;SDS011;4334;49.982;8.398;2023-10-13T01:51:29;8.70;;;5.50;;
8592;SDS011;4334;49.982;8.398;2023-10-13T01:53:55;9.73;;;5.37;;
8592;SDS011;4334;49.982;8.398;2023-10-13T01:56:24;12.73;;;5.37;;
8592;SDS011;4334;49.982;8.398;2023-10-13T01:58:54;12.80;;;5.77;;
8592;SDS011;4334;49.982;8.398;2023-10-13T02:01:21;11.30;;;5.30;;
8592;SDS011;4334;49.982;8.398;2023-10-13T02:03:55;10.43;;;5.77;;
8592;SDS011;4334;49.982;8.398;2023-10-13T02:06:28;9.80;;;5.27;;
8592;SDS011;4334;49.982;8.398;2023-10-13T02:08:58;8.23;;;5.40;;
8592;SDS011;4334;49.982;8.398;2023-10-13T02:11:37;12.63;;;6.90;;
8592;SDS011;4334;49.982;8.398;2023-10-13T02:14:03;12.80;;;6.33;;
8592;SDS011;4334;49.982;8.398;2023-10-13T02:16:30;14.17;;;7.23;;
8592;SDS011;4334;49.982;8.398;2023-10-13T02:18:56;8.20;;;5.40;;
8592;SDS011;4334;49.982;8.398;2023-10-13T02:21:29;11.83;;;6.13;;
8592;SDS011;4334;49.982;8.398;2023-10-13T02:23:56;8.63;;;5.63;;
8592;SDS011;4334;49.982;8.398;2023-10-13T02:26:29;11.80;;;6.10;;
8592;SDS011;4334;49.982;8.398;2023-10-13T02:28:57;10.50;;;5.73;;
8592;SDS011;4334;49.982;8.398;2023-10-13T02:31:26;11.57;;;5.43;;
8592;SDS011;4334;49.982;8.398;2023-10-13T02:33:52;39.57;;;17.90;;
8592;SDS011;4334;49.982;8.398;2023-10-13T02:36:19;31.90;;;12.43;;
8592;SDS011;4334;49.982;8.398;2023-10-13T02:38:47;11.83;;;6.93;;
8592;SDS011;4334;49.982;8.398;2023-10-13T02:41:16;14.37;;;6.23;;
8592;SDS011;4334;49.982;8.398;2023-10-13T02:43:45;10.10;;;5.70;;
8592;SDS011;4334;49.982;8.398;2023-10-13T02:46:13;15.03;;;5.90;;
8592;SDS011;4334;49.982;8.398;2023-10-13T02:48:41;11.20;;;6.13;;
8592;SDS011;4334;49.982;8.398;2023-10-13T02:51:11;12.20;;;6.93;;
8592;SDS011;4334;49.982;8.398;2023-10-13T02:53:43;21.77;;;10.70;;
8592;SDS011;4334;49.982;8.398;2023-10-13T02:56:13;20.03;;;9.13;;
8592;SDS011;4334;49.982;8.398;2023-10-13T02:58:45;9.83;;;6.03;;
8592;SDS011;4334;49.982;8.398;2023-10-13T03:01:20;9.10;;;5.63;;
8592;SDS011;4334;49.982;8.398;2023-10-13T03:03:48;47.57;;;20.13;;
8592;SDS011;4334;49.982;8.398;2023-10-13T03:06:16;45.40;;;19.27;;
8592;SDS011;4334;49.982;8.398;2023-10-13T03:08:47;27.60;;;15.07;;
8592;SDS011;4334;49.982;8.398;2023-10-13T03:11:14;19.40;;;9.40;;
8592;SDS011;4334;49.982;8.398;2023-10-13T03:13:46;18.80;;;8.63;;
8592;SDS011;4334;49.982;8.398;2023-10-13T03:16:16;18.97;;;9.47;;
8592;SDS011;4334;49.982;8.398;2023-10-13T03:18:46;24.40;;;11.67;;
8592;SDS011;4334;49.982;8.398;2023-10-13T03:21:19;45.80;;;21.53;;
8592;SDS011;4334;49.982;8.398;2023-10-13T03:23:58;44.20;;;19.70;;
8592;SDS011;4334;49.982;8.398;2023-10-13T03:26:31;40.70;;;18.20;;
8592;SDS011;4334;49.982;8.398;2023-10-13T03:29:01;19.33;;;10.40;;
8592;SDS011;4334;49.982;8.398;2023-10-13T03:31:33;12.43;;;6.77;;
8592;SDS011;4334;49.982;8.398;2023-10-13T03:34:03;9.70;;;5.83;;
8592;SDS011;4334;49.982;8.398;2023-10-13T03:36:34;12.57;;;5.67;;
8592;SDS011;4334;49.982;8.398;2023-10-13T03:39:22;9.33;;;5.53;;
8592;SDS011;4334;49.982;8.398;2023-10-13T03:41:56;13.70;;;6.40;;
8592;SDS011;4334;49.982;8.398;2023-10-13T03:44:24;8.63;;;5.90;;
8592;SDS011;4334;49.982;8.398;2023-10-13T03:46:57;12.80;;;6.10;;
8592;SDS011;4334;49.982;8.398;2023-10-13T03:49:33;8.33;;;6.20;;
8592;SDS011;4334;49.982;8.398;2023-10-13T03:52:03;13.73;;;6.33;;
8592;SDS011;4334;49.982;8.398;2023-10-13T03:54:31;8.80;;;6.03;;
8592;SDS011;4334;49.982;8.398;2023-10-13T03:57:00;17.27;;;6.70;;
8592;SDS011;4334;49.982;8.398;2023-10-13T03:59:35;10.83;;;5.93;;
8592;SDS011;4334;49.982;8.398;2023-10-13T04:02:04;13.57;;;5.93;;
8592;SDS011;4334;49.982;8.398;2023-10-13T04:04:37;8.67;;;6.17;;
8592;SDS011;4334;49.982;8.398;2023-10-13T04:07:13;13.00;;;6.10;;
8592;SDS011;4334;49.982;8.398;2023-10-13T04:10:04;22.93;;;12.27;;
8592;SDS011;4334;49.982;8.398;2023-10-13T04:12:49;14.97;;;7.70;;
8592;SDS011;4334;49.982;8.398;2023-10-13T04:15:34;11.10;;;6.30;;
8592;SDS011;4334;49.982;8.398;2023-10-13T04:18:09;9.77;;;5.83;;
8592;SDS011;4334;49.982;8.398;2023-10-13T04:20:59;13.20;;;5.87;;
8592;SDS011;4334;49.982;8.398;2023-10-13T04:23:43;13.10;;;6.60;;
8592;SDS011;4334;49.982;8.398;2023-10-13T04:26:24;10.23;;;5.83;;
8592;SDS011;4334;49.982;8.398;2023-10-13T04:29:02;9.00;;;5.87;;
8592;SDS011;4334;49.982;8.398;2023-10-13T04:31:35;16.00;;;7.40;;
8592;SDS011;4334;49.982;8.398;2023-10-13T04:34:23;9.33;;;5.83;;
8592;SDS011;4334;49.982;8.398;2023-10-13T04:37:00;12.40;;;6.20;;
8592;SDS011;4334;49.982;8.398;2023-10-13T04:39:48;8.10;;;5.70;;
8592;SDS011;4334;49.982;8.398;2023-10-13T04:42:22;9.73;;;5.30;;
8592;SDS011;4334;49.982;8.398;2023-10-13T04:45:05;12.90;;;5.67;;
8592;SDS011;4334;49.982;8.398;2023-10-13T04:47:52;6.70;;;5.00;;
8592;SDS011;4334;49.982;8.398;2023-10-13T04:50:39;10.77;;;6.00;;
8592;SDS011;4334;49.982;8.398;2023-10-13T04:53:10;8.93;;;5.57;;
8592;SDS011;4334;49.982;8.398;2023-10-13T04:55:52;9.10;;;5.17;;
8592;SDS011;4334;49.982;8.398;2023-10-13T04:58:33;10.53;;;6.50;;
8592;SDS011;4334;49.982;8.398;2023-10-13T05:01:31;12.17;;;6.67;;
8592;SDS011;4334;49.982;8.398;2023-10-13T05:04:16;12.00;;;7.60;;
8592;SDS011;4334;49.982;8.398;2023-10-13T05:07:05;10.90;;;6.63;;
8592;SDS011;4334;49.982;8.398;2023-10-13T05:09:49;13.17;;;6.47;;
8592;SDS011;4334;49.982;8.398;2023-10-13T05:12:34;13.17;;;6.33;;
8592;SDS011;4334;49.982;8.398;2023-10-13T05:15:19;14.50;;;7.40;;
8592;SDS011;4334;49.982;8.398;2023-10-13T05:18:04;12.30;;;6.57;;
8592;SDS011;4334;49.982;8.398;2023-10-13T05:20:49;15.00;;;5.83;;
8592;SDS011;4334;49.982;8.398;2023-10-13T05:23:35;11.00;;;5.90;;
8592;SDS011;4334;49.982;8.398;2023-10-13T05:26:20;9.30;;;5.40;;
8592;SDS011;4334;49.982;8.398;2023-10-13T05:29:05;15.73;;;6.13;;
8592;SDS011;4334;49.982;8.398;2023-10-13T05:31:49;7.07;;;5.07;;
8592;SDS011;4334;49.982;8.398;2023-10-13T05:34:34;8.03;;;5.30;;
8592;SDS011;4334;49.982;8.398;2023-10-13T05:37:19;13.30;;;6.13;;
8592;SDS011;4334;49.982;8.398;2023-10-13T05:40:06;7.03;;;4.97;;
8592;SDS011;4334;49.982;8.398;2023-10-13T05:42:51;8.60;;;5.53;;
8592;SDS011;4334;49.982;8.398;2023-10-13T05:45:36;9.40;;;5.40;;
8592;SDS011;4334;49.982;8.398;2023-10-13T05:48:24;10.50;;;5.87;;
8592;SDS011;4334;49.982;8.398;2023-10-13T05:51:06;13.10;;;6.67;;
8592;SDS011;4334;49.982;8.398;2023-10-13T05:53:50;9.20;;;5.37;;
8592;SDS011;4334;49.982;8.398;2023-10-13T05:56:37;8.77;;;5.93;;
8592;SDS011;4334;49.982;8.398;2023-10-13T05:59:21;6.70;;;5.30;;
8592;SDS011;4334;49.982;8.398;2023-10-13T06:02:05;10.67;;;5.60;;
8592;SDS011;4334;49.982;8.398;2023-10-13T06:04:50;7.80;;;5.53;;
8592;SDS011;4334;49.982;8.398;2023-10-13T06:07:35;11.87;;;5.93;;
8592;SDS011;4334;49.982;8.398;2023-10-13T06:10:19;11.30;;;5.93;;
8592;SDS011;4334;49.982;8.398;2023-10-13T06:13:06;9.73;;;5.63;;
8592;SDS011;4334;49.982;8.398;2023-10-13T06:15:51;7.30;;;5.13;;
8592;SDS011;4334;49.982;8.398;2023-10-13T06:18:36;10.17;;;5.90;;
8592;SDS011;4334;49.982;8.398;2023-10-13T06:21:20;8.13;;;5.00;;
8592;SDS011;4334;49.982;8.398;2023-10-13T06:24:06;10.63;;;5.73;;
8592;SDS011;4334;49.982;8.398;2023-10-13T06:26:51;12.03;;;5.83;;
8592;SDS011;4334;49.982;8.398;2023-10-13T06:29:37;7.70;;;5.60;;
8592;SDS011;4334;49.982;8.398;2023-10-13T06:32:03;7.97;;;4.93;;
8592;SDS011;4334;49.982;8.398;2023-10-13T06:34:35;11.40;;;5.43;;
8592;SDS011;4334;49.982;8.398;2023-10-13T06:37:09;10.27;;;5.10;;
8592;SDS011;4334;49.982;8.398;2023-10-13T06:39:48;8.40;;;5.53;;
8592;SDS011;4334;49.982;8.398;2023-10-13T06:42:15;12.67;;;5.87;;
8592;SDS011;4334;49.982;8.398;2023-10-13T06:44:45;8.23;;;4.70;;
8592;SDS011;4334;49.982;8.398;2023-10-13T06:47:12;13.83;;;5.47;;
8592;SDS011;4334;49.982;8.398;2023-10-13T06:49:40;6.70;;;4.73;;
8592;SDS011;4334;49.982;8.398;2023-10-13T06:52:08;8.33;;;4.60;;
8592;SDS011;4334;49.982;8.398;2023-10-13T06:54:35;9.03;;;5.10;;
8592;SDS011;4334;49.982;8.398;2023-10-13T06:57:04;9.73;;;4.57;;
8592;SDS011;4334;49.982;8.398;2023-10-13T06:59:35;5.63;;;4.30;;
8592;SDS011;4334;49.982;8.398;2023-10-13T07:02:07;8.60;;;4.33;;
8592;SDS011;4334;49.982;8.398;2023-10-13T07:04:34;5.63;;;4.30;;
8592;SDS011;4334;49.982;8.398;2023-10-13T07:07:04;7.23;;;3.90;;
8592;SDS011;4334;49.982;8.398;2023-10-13T07:09:35;9.23;;;4.53;;
8592;SDS011;4334;49.982;8.398;2023-10-13T07:12:14;5.03;;;3.67;;
8592;SDS011;4334;49.982;8.398;2023-10-13T07:14:46;6.73;;;4.23;;
8592;SDS011;4334;49.982;8.398;2023-10-13T07:17:18;7.43;;;4.13;;
8592;SDS011;4334;49.982;8.398;2023-10-13T07:19:50;5.90;;;3.73;;
8592;SDS011;4334;49.982;8.398;2023-10-13T07:22:19;10.87;;;3.93;;
8592;SDS011;4334;49.982;8.398;2023-10-13T07:24:48;9.20;;;4.50;;
8592;SDS011;4334;49.982;8.398;2023-10-13T07:27:17;12.20;;;7.07;;
8592;SDS011;4334;49.982;8.398;2023-10-13T07:29:49;8.97;;;5.17;;
8592;SDS011;4334;49.982;8.398;2023-10-13T07:32:23;9.60;;;5.60;;
8592;SDS011;4334;49.982;8.398;2023-10-13T07:34:54;7.50;;;5.53;;
8592;SDS011;4334;49.982;8.398;2023-10-13T07:37:26;10.48;;;5.10;;
8592;SDS011;4334;49.982;8.398;2023-10-13T07:39:54;8.50;;;4.75;;
8592;SDS011;4334;49.982;8.398;2023-10-13T07:42:24;7.80;;;5.05;;
8592;SDS011;4334;49.982;8.398;2023-10-13T07:44:57;6.05;;;4.43;;
8592;SDS011;4334;49.982;8.398;2023-10-13T07:47:25;9.43;;;5.18;;
8592;SDS011;4334;49.982;8.398;2023-10-13T07:49:53;6.32;;;3.90;;
8592;SDS011;4334;49.982;8.398;2023-10-13T07:52:22;13.15;;;6.18;;
8592;SDS011;4334;49.982;8.398;2023-10-13T07:54:51;10.75;;;4.82;;
8592;SDS011;4334;49.982;8.398;2023-10-13T07:57:25;12.00;;;4.45;;
8592;SDS011;4334;49.982;8.398;2023-10-13T07:59:54;6.72;;;4.18;;
8592;SDS011;4334;49.982;8.398;2023-10-13T08:02:35;6.68;;;4.28;;
8592;SDS011;4334;49.982;8.398;2023-10-13T08:05:16;8.98;;;4.50;;
8592;SDS011;4334;49.982;8.398;2023-10-13T08:07:50;6.95;;;3.70;;
8592;SDS011;4334;49.982;8.398;2023-10-13T08:10:18;8.30;;;4.88;;
8592;SDS011;4334;49.982;8.398;2023-10-13T08:12:50;8.43;;;3.83;;
8592;SDS011;4334;49.982;8.398;2023-10-13T08:15:17;6.28;;;4.10;;
8592;SDS011;4334;49.982;8.398;2023-10-13T08:17:58;8.60;;;4.07;;
8592;SDS011;4334;49.982;8.398;2023-10-13T08:20:29;8.50;;;4.30;;
8592;SDS011;4334;49.982;8.398;2023-10-13T08:23:03;9.27;;;4.68;;
8592;SDS011;4334;49.982;8.398;2023-10-13T08:25:38;9.10;;;4.40;;
8592;SDS011;4334;49.982;8.398;2023-10-13T08:28:19;8.93;;;4.40;;
8592;SDS011;4334;49.982;8.398;2023-10-13T08:31:03;4.57;;;3.83;;
8592;SDS011;4334;49.982;8.398;2023-10-13T08:33:41;5.97;;;4.18;;
8592;SDS011;4334;49.982;8.398;2023-10-13T08:36:12;9.23;;;4.13;;
8592;SDS011;4334;49.982;8.398;2023-10-13T08:38:52;5.65;;;4.22;;
8592;SDS011;4334;49.982;8.398;2023-10-13T08:41:20;4.82;;;3.60;;
8592;SDS011;4334;49.982;8.398;2023-10-13T08:44:03;6.90;;;4.22;;
8592;SDS011;4334;49.982;8.398;2023-10-13T08:46:34;5.00;;;3.70;;
8592;SDS011;4334;49.982;8.398;2023-10-13T08:49:32;7.50;;;4.32;;
8592;SDS011;4334;49.982;8.398;2023-10-13T08:52:07;4.95;;;3.55;;
8592;SDS011;4334;49.982;8.398;2023-10-13T08:54:50;8.05;;;3.90;;
8592;SDS011;4334;49.982;8.398;2023-10-13T08:57:30;7.65;;;3.75;;
8592;SDS011;4334;49.982;8.398;2023-10-13T08:59:58;6.32;;;4.30;;
8592;SDS011;4334;49.982;8.398;2023-10-13T09:02:48;5.60;;;4.20;;
8592;SDS011;4334;49.982;8.398;2023-10-13T09:05:42;5.78;;;4.38;;
8592;SDS011;4334;49.982;8.398;2023-10-13T09:08:26;8.40;;;4.40;;
8592;SDS011;4334;49.982;8.398;2023-10-13T09:11:00;7.10;;;3.92;;
8592;SDS011;4334;49.982;8.398;2023-10-13T09:13:36;6.18;;;4.00;;
8592;SDS011;4334;49.982;8.398;2023-10-13T09:16:09;7.90;;;4.18;;
8592;SDS011;4334;49.982;8.398;2023-10-13T09:18:42;5.05;;;3.63;;
8592;SDS011;4334;49.982;8.398;2023-10-13T09:21:12;5.00;;;3.70;;
8592;SDS011;4334;49.982;8.398;2023-10-13T09:24:09;6.43;;;3.88;;
8592;SDS011;4334;49.982;8.398;2023-10-13T09:26:46;4.75;;;3.75;;
8592;SDS011;4334;49.982;8.398;2023-10-13T09:29:16;6.15;;;3.83;;
8592;SDS011;4334;49.982;8.398;2023-10-13T09:31:44;7.47;;;3.58;;
8592;SDS011;4334;49.982;8.398;2023-10-13T09:34:20;5.97;;;4.03;;
8592;SDS011;4334;49.982;8.398;2023-10-13T09:36:50;7.03;;;4.22;;
8592;SDS011;4334;49.982;8.398;2023-10-13T09:39:22;6.25;;;3.67;;
8592;SDS011;4334;49.982;8.398;2023-10-13T09:42:02;7.75;;;4.35;;
8592;SDS011;4334;49.982;8.398;2023-10-13T09:44:28;7.38;;;4.45;;
8592;SDS011;4334;49.982;8.398;2023-10-13T09:47:00;4.95;;;3.85;;
8592;SDS011;4334;49.982;8.398;2023-10-13T09:49:33;5.30;;;4.15;;
8592;SDS011;4334;49.982;8.398;2023-10-13T09:52:14;8.77;;;4.05;;
8592;SDS011;4334;49.982;8.398;2023-10-13T09:54:53;6.82;;;4.00;;
8592;SDS011;4334;49.982;8.398;2023-10-13T09:57:27;9.88;;;3.72;;
8592;SDS011;4334;49.982;8.398;2023-10-13T10:00:00;6.47;;;3.70;;
8592;SDS011;4334;49.982;8.398;2023-10-13T10:02:53;9.18;;;3.88;;
8592;SDS011;4334;49.982;8.398;2023-10-13T10:05:24;5.57;;;3.80;;
8592;SDS011;4334;49.982;8.398;2023-10-13T10:07:55;7.70;;;3.72;;
8592;SDS011;4334;49.982;8.398;2023-10-13T10:10:25;4.75;;;3.58;;
8592;SDS011;4334;49.982;8.398;2023-10-13T10:13:04;4.55;;;3.40;;
8592;SDS011;4334;49.982;8.398;2023-10-13T10:15:43;4.65;;;3.60;;
8592;SDS011;4334;49.982;8.398;2023-10-13T10:18:19;5.30;;;3.53;;
8592;SDS011;4334;49.982;8.398;2023-10-13T10:20:47;7.72;;;3.60;;
8592;SDS011;4334;49.982;8.398;2023-10-13T10:23:26;9.02;;;3.92;;
8592;SDS011;4334;49.982;8.398;2023-10-13T10:25:55;5.88;;;3.42;;
8592;SDS011;4334;49.982;8.398;2023-10-13T10:28:36;7.20;;;3.30;;
8592;SDS011;4334;49.982;8.398;2023-10-13T10:31:04;7.55;;;3.20;;
8592;SDS011;4334;49.982;8.398;2023-10-13T10:33:34;5.18;;;3.22;;
8592;SDS011;4334;49.982;8.398;2023-10-13T10:36:02;6.15;;;4.13;;
8592;SDS011;4334;49.982;8.398;2023-10-13T10:38:31;10.88;;;4.55;;
8592;SDS011;4334;49.982;8.398;2023-10-13T10:41:03;10.18;;;4.65;;
8592;SDS011;4334;49.982;8.398;2023-10-13T10:43:35;6.05;;;3.67;;
8592;SDS011;4334;49.982;8.398;2023-10-13T10:46:08;4.55;;;3.33;;
8592;SDS011;4334;49.982;8.398;2023-10-13T10:48:36;4.68;;;3.28;;
8592;SDS011;4334;49.982;8.398;2023-10-13T10:51:08;6.55;;;3.30;;
8592;SDS011;4334;49.982;8.398;2023-10-13T10:53:47;7.00;;;3.38;;
8592;SDS011;4334;49.982;8.398;2023-10-13T10:56:15;5.60;;;3.63;;
8592;SDS011;4334;49.982;8.398;2023-10-13T10:58:48;5.53;;;3.35;;
8592;SDS011;4334;49.982;8.398;2023-10-13T11:01:20;5.53;;;3.58;;
8592;SDS011;4334;49.982;8.398;2023-10-13T11:03:54;4.43;;;3.00;;
8592;SDS011;4334;49.982;8.398;2023-10-13T11:06:23;5.78;;;3.53;;
8592;SDS011;4334;49.982;8.398;2023-10-13T11:09:02;4.47;;;3.33;;
8592;SDS011;4334;49.982;8.398;2023-10-13T11:11:43;5.70;;;3.42;;
8592;SDS011;4334;49.982;8.398;2023-10-13T11:14:19;5.60;;;3.30;;
8592;SDS011;4334;49.982;8.398;2023-10-13T11:16:49;5.18;;;3.20;;
8592;SDS011;4334;49.982;8.398;2023-10-13T11:19:18;6.32;;;3.55;;
8592;SDS011;4334;49.982;8.398;2023-10-13T11:21:50;4.55;;;3.05;;
8592;SDS011;4334;49.982;8.398;2023-10-13T11:24:20;6.28;;;3.03;;
8592;SDS011;4334;49.982;8.398;2023-10-13T11:26:47;3.78;;;2.67;;
8592;SDS011;4334;49.982;8.398;2023-10-13T11:29:15;6.72;;;3.80;;
8592;SDS011;4334;49.982;8.398;2023-10-13T11:31:45;4.90;;;3.17;;
8592;SDS011;4334;49.982;8.398;2023-10-13T11:34:15;4.18;;;3.38;;
8592;SDS011;4334;49.982;8.398;2023-10-13T11:36:42;4.57;;;3.17;;
8592;SDS011;4334;49.982;8.398;2023-10-13T11:39:09;5.03;;;3.92;;
8592;SDS011;4334;49.982;8.398;2023-10-13T11:41:43;5.20;;;3.33;;
8592;SDS011;4334;49.982;8.398;2023-10-13T11:44:19;4.25;;;3.38;;
8592;SDS011;4334;49.982;8.398;2023-10-13T11:47:02;3.90;;;3.20;;
8592;SDS011;4334;49.982;8.398;2023-10-13T11:49:55;4.40;;;3.50;;
8592;SDS011;4334;49.982;8.398;2023-10-13T11:52:23;6.88;;;3.28;;
8592;SDS011;4334;49.982;8.398;2023-10-13T11:54:52;5.07;;;3.33;;
8592;SDS011;4334;49.982;8.398;2023-10-13T11:57:20;4.82;;;3.42;;
8592;SDS011;4334;49.982;8.398;2023-10-13T11:59:47;5.00;;;4.00;;
8592;SDS011;4334;49.982;8.398;2023-10-13T12:02:21;4.85;;;3.17;;
8592;SDS011;4334;49.982;8.398;2023-10-13T12:05:06;5.82;;;3.45;;
8592;SDS011;4334;49.982;8.398;2023-10-13T12:07:41;6.00;;;3.38;;
8592;SDS011;4334;49.982;8.398;2023-10-13T12:10:13;4.30;;;3.22;;
8592;SDS011;4334;49.982;8.398;2023-10-13T12:12:59;4.97;;;3.17;;
8592;SDS011;4334;49.982;8.398;2023-10-13T12:15:31;7.93;;;3.30;;
8592;SDS011;4334;49.982;8.398;2023-10-13T12:18:13;6.38;;;3.35;;
8592;SDS011;4334;49.982;8.398;2023-10-13T12:20:41;4.03;;;3.38;;
8592;SDS011;4334;49.982;8.398;2023-10-13T12:23:11;8.70;;;3.30;;
8592;SDS011;4334;49.982;8.398;2023-10-13T12:25:42;3.70;;;2.83;;
8592;SDS011;4334;49.982;8.398;2023-10-13T12:28:26;6.93;;;3.50;;
8592;SDS011;4334;49.982;8.398;2023-10-13T12:31:02;5.35;;;3.47;;
8592;SDS011;4334;49.982;8.398;2023-10-13T12:33:32;9.35;;;3.13;;
8592;SDS011;4334;49.982;8.398;2023-10-13T12:36:05;4.57;;;3.20;;
8592;SDS011;4334;49.982;8.398;2023-10-13T12:38:34;5.10;;;3.30;;
8592;SDS011;4334;49.982;8.398;2023-10-13T12:41:30;9.65;;;3.53;;
8592;SDS011;4334;49.982;8.398;2023-10-13T12:44:17;4.72;;;2.97;;
8592;SDS011;4334;49.982;8.398;2023-10-13T12:47:01;4.68;;;3.13;;
8592;SDS011;4334;49.982;8.398;2023-10-13T12:49:46;5.07;;;2.75;;
8592;SDS011;4334;49.982;8.398;2023-10-13T12:52:23;4.10;;;3.00;;
8592;SDS011;4334;49.982;8.398;2023-10-13T12:54:57;5.68;;;3.00;;
8592;SDS011;4334;49.982;8.398;2023-10-13T12:57:35;4.63;;;3.15;;
8592;SDS011;4334;49.982;8.398;2023-10-13T13:00:10;5.18;;;3.28;;
8592;SDS011;4334;49.982;8.398;2023-10-13T13:02:50;5.18;;;2.83;;
8592;SDS011;4334;49.982;8.398;2023-10-13T13:05:17;3.90;;;2.90;;
8592;SDS011;4334;49.982;8.398;2023-10-13T13:07:48;5.80;;;2.95;;
8592;SDS011;4334;49.982;8.398;2023-10-13T13:10:17;3.83;;;2.92;;
8592;SDS011;4334;49.982;8.398;2023-10-13T13:12:45;6.80;;;3.00;;
8592;SDS011;4334;49.982;8.398;2023-10-13T13:15:14;3.63;;;3.05;;
8592;SDS011;4334;49.982;8.398;2023-10-13T13:17:40;4.50;;;3.10;;
8592;SDS011;4334;49.982;8.398;2023-10-13T13:20:08;8.05;;;3.35;;
8592;SDS011;4334;49.982;8.398;2023-10-13T13:22:53;6.63;;;3.40;;
8592;SDS011;4334;49.982;8.398;2023-10-13T13:25:27;7.97;;;4.80;;
8592;SDS011;4334;49.982;8.398;2023-10-13T13:27:55;5.85;;;3.67;;
8592;SDS011;4334;49.982;8.398;2023-10-13T13:30:25;3.85;;;2.83;;
8592;SDS011;4334;49.982;8.398;2023-10-13T13:32:57;4.30;;;3.25;;
8592;SDS011;4334;49.982;8.398;2023-10-13T13:35:29;10.15;;;3.30;;
8592;SDS011;4334;49.982;8.398;2023-10-13T13:38:00;4.78;;;3.20;;
8592;SDS011;4334;49.982;8.398;2023-10-13T13:40:36;6.65;;;3.20;;
8592;SDS011;4334;49.982;8.398;2023-10-13T13:43:04;4.80;;;3.10;;
8592;SDS011;4334;49.982;8.398;2023-10-13T13:45:33;3.25;;;2.60;;
8592;SDS011;4334;49.982;8.398;2023-10-13T13:48:00;3.65;;;2.45;;
8592;SDS011;4334;49.982;8.398;2023-10-13T13:50:32;5.60;;;3.00;;
8592;SDS011;4334;49.982;8.398;2023-10-13T13:53:06;5.07;;;3.30;;
8592;SDS011;4334;49.982;8.398;2023-10-13T13:55:34;5.32;;;3.13;;
8592;SDS011;4334;49.982;8.398;2023-10-13T13:58:05;6.80;;;3.08;;
8592;SDS011;4334;49.982;8.398;2023-10-13T14:00:35;7.03;;;3.00;;
8592;SDS011;4334;49.982;8.398;2023-10-13T14:03:05;7.40;;;3.15;;
8592;SDS011;4334;49.982;8.398;2023-10-13T14:05:40;5.70;;;2.90;;
8592;SDS011;4334;49.982;8.398;2023-10-13T14:08:07;3.38;;;2.83;;
8592;SDS011;4334;49.982;8.398;2023-10-13T14:10:36;4.60;;;2.80;;
8592;SDS011;4334;49.982;8.398;2023-10-13T14:13:30;7.47;;;2.95;;
8592;SDS011;4334;49.982;8.398;2023-10-13T14:16:12;3.33;;;2.80;;
8592;SDS011;4334;49.982;8.398;2023-10-13T14:18:42;4.30;;;3.10;;
8592;SDS011;4334;49.982;8.398;2023-10-13T14:21:10;5.63;;;3.00;;
8592;SDS011;4334;49.982;8.398;2023-10-13T14:23:42;3.90;;;3.00;;
8592;SDS011;4334;49.982;8.398;2023-10-13T14:26:13;6.28;;;2.42;;
8592;SDS011;4334;49.982;8.398;2023-10-13T14:28:40;5.13;;;2.88;;
8592;SDS011;4334;49.982;8.398;2023-10-13T14:31:18;5.32;;;3.58;;
8592;SDS011;4334;49.982;8.398;2023-10-13T14:33:46;3.78;;;3.05;;
8592;SDS011;4334;49.982;8.398;2023-10-13T14:36:13;3.75;;;2.58;;
8592;SDS011;4334;49.982;8.398;2023-10-13T14:38:45;3.90;;;3.17;;
8592;SDS011;4334;49.982;8.398;2023-10-13T14:41:14;8.77;;;3.00;;
8592;SDS011;4334;49.982;8.398;2023-10-13T14:43:42;4.32;;;2.83;;
8592;SDS011;4334;49.982;8.398;2023-10-13T14:46:13;8.82;;;3.13;;
8592;SDS011;4334;49.982;8.398;2023-10-13T14:48:42;4.93;;;2.85;;
8592;SDS011;4334;49.982;8.398;2023-10-13T14:51:09;5.30;;;2.95;;
8592;SDS011;4334;49.982;8.398;2023-10-13T14:53:38;4.10;;;2.67;;
8592;SDS011;4334;49.982;8.398;2023-10-13T14:56:08;5.43;;;2.80;;
8592;SDS011;4334;49.982;8.398;2023-10-13T14:58:36;5.75;;;3.10;;
8592;SDS011;4334;49.982;8.398;2023-10-13T15:01:10;4.78;;;3.38;;
8592;SDS011;4334;49.982;8.398;2023-10-13T15:03:40;4.30;;;2.88;;
8592;SDS011;4334;49.982;8.398;2023-10-13T15:06:14;5.88;;;2.85;;
8592;SDS011;4334;49.982;8.398;2023-10-13T15:08:42;7.05;;;3.25;;
8592;SDS011;4334;49.982;8.398;2023-10-13T15:11:11;5.30;;;2.63;;
8592;SDS011;4334;49.982;8.398;2023-10-13T15:13:39;4.68;;;3.15;;
8592;SDS011;4334;49.982;8.398;2023-10-13T15:16:14;5.60;;;2.58;;
8592;SDS011;4334;49.982;8.398;2023-10-13T15:18:44;6.32;;;2.70;;
8592;SDS011;4334;49.982;8.398;2023-10-13T15:21:11;3.53;;;2.70;;
8592;SDS011;4334;49.982;8.398;2023-10-13T15:23:44;5.85;;;2.80;;
8592;SDS011;4334;49.982;8.398;2023-10-13T15:26:11;6.32;;;2.90;;
8592;SDS011;4334;49.982;8.398;2023-10-13T15:28:39;4.35;;;2.65;;
8592;SDS011;4334;49.982;8.398;2023-10-13T15:31:13;4.20;;;2.70;;
8592;SDS011;4334;49.982;8.398;2023-10-13T15:33:52;8.00;;;3.33;;
8592;SDS011;4334;49.982;8.398;2023-10-13T15:36:21;4.38;;;2.63;;
8592;SDS011;4334;49.982;8.398;2023-10-13T15:38:49;6.07;;;3.50;;
8592;SDS011;4334;49.982;8.398;2023-10-13T15:41:26;7.60;;;3.15;;
8592;SDS011;4334;49.982;8.398;2023-10-13T15:43:53;9.40;;;4.45;;
8592;SDS011;4334;49.982;8.398;2023-10-13T15:46:21;6.88;;;4.07;;
8592;SDS011;4334;49.982;8.398;2023-10-13T15:48:48;5.07;;;3.00;;
8592;SDS011;4334;49.982;8.398;2023-10-13T15:51:17;6.32;;;3.50;;